BBC Orinoco — V2DM2 — position and weather

sailwx.info

Track history (hours):
 
Tides and Currents Weather Stations Pressure Air Temp Water Temp Dewpoint Dewpoint Depression Visibility Wind Speed Wind Dir Waves Ship Positions

BBC Orinoco

Last reported at 2015-Feb-21 15:33 UTC. Time now 2015-Feb-27 07:37 UTC.
Position N 36°04' W 005°13'.

Length 143 m; draft 9.4 m.

Type: Cargo ship. MMSI: 305255000.

Date/timePositionNaut miles runAvg speedWind from/ knotsBaromVisibWave heightAir tempDewpointWater temp
2015-Feb-21 15:33N 36°04' W 005°13'8 8.1
2015-Feb-21 14:34N 36°04' W 005°23'22511.6
2015-Feb-20 19:11N 37°26' W 009°45'914.0
2015-Feb-20 18:32N 37°35' W 009°47'1413.9
2015-Feb-20 17:33N 37°48' W 009°51'1614.1
2015-Feb-20 16:24N 38°04' W 009°57'1214.0
2015-Feb-20 15:31N 38°16' W 010°00'1414.4
2015-Feb-20 14:32N 38°30' W 010°04'  
2015-Feb-17 15:06N 50°31' E 000°16'814.8
2015-Feb-17 14:33N 50°33' E 000°29'1414.4
2015-Feb-17 13:33N 50°40' E 000°48'1813.8
2015-Feb-17 12:16N 50°51' E 001°11'911.9
2015-Feb-17 11:31N 50°57' E 001°21'1111.7
2015-Feb-17 10:33N 51°05' E 001°33'1211.8
2015-Feb-17 09:33N 51°14' E 001°46'1313.4
2015-Feb-17 08:34N 51°25' E 001°58'1514.8
2015-Feb-17 07:33N 51°37' E 002°13'10813.5
2015-Feb-16 23:32N 53°01' E 004°04'1913.7
2015-Feb-16 22:10N 53°14' E 004°26'1314.2
2015-Feb-16 21:16N 53°26' E 004°35'1113.3
2015-Feb-16 20:28N 53°31' E 004°50'1313.9
2015-Feb-16 19:33N 53°35' E 005°10'1312.8
2015-Feb-16 18:33N 53°39' E 005°31'1312.6
2015-Feb-16 17:33N 53°44' E 005°51'1211.3
2015-Feb-16 16:32N 53°47' E 006°09'4611.5
2015-Feb-16 12:33N 53°59' E 007°25'1211.5
2015-Feb-16 11:33N 54°01' E 007°44'1212.3
2015-Feb-16 10:33N 54°01' E 008°05'1312.8
2015-Feb-16 09:33N 53°59' E 008°26'1110.6
2015-Feb-16 08:33N 53°54' E 008°42'9 9.0
2015-Feb-16 07:33N 53°51' E 008°56'8 7.7
2015-Feb-16 06:33N 53°54' E 009°09'0 0.2
2015-Feb-16 05:33N 53°54' E 009°09'1 1.2
2015-Feb-16 04:33N 53°55' E 009°10'2 1.7
2015-Feb-16 03:33N 53°56' E 009°12'6 6.5
2015-Feb-16 02:33N 54°01' E 009°18'4 4.3
2015-Feb-16 01:33N 54°05' E 009°20'6 5.4
2015-Feb-16 00:33N 54°10' E 009°25'13 4.3
2015-Feb-15 21:29N 54°18' E 009°43'6 6.0
2015-Feb-15 20:33N 54°22' E 009°50'6 5.9
2015-Feb-15 19:33N 54°21' E 010°00'3 2.6
2015-Feb-15 18:33N 54°22' E 010°04'2 2.4
2015-Feb-15 17:33N 54°22' E 010°09'1 0.8
2015-Feb-15 16:33N 54°22' E 010°10'1 0.8
2015-Feb-15 15:33N 54°22' E 010°11'4 3.7
2015-Feb-15 14:33N 54°26' E 010°13'10 9.9
2015-Feb-15 13:33N 54°32' E 010°26'2311.5
2015-Feb-15 11:33N 54°36' E 011°06'1111.5
2015-Feb-15 10:33N 54°32' E 011°24'1211.6
2015-Feb-15 09:33N 54°27' E 011°42'1111.2
2015-Feb-15 08:33N 54°26' E 012°02'1211.7
2015-Feb-15 07:33N 54°35' E 012°14'1211.9
2015-Feb-15 06:32N 54°43' E 012°31'1312.7
2015-Feb-15 05:31N 54°49' E 012°50'1211.9
2015-Feb-15 04:33N 54°53' E 013°09'1111.5
2015-Feb-15 03:33N 54°56' E 013°28'1211.7
2015-Feb-15 02:33N 55°00' E 013°47'1211.7
2015-Feb-15 01:33N 55°05' E 014°07'1211.7
2015-Feb-15 00:33N 55°14' E 014°19'1111.4
2015-Feb-14 23:33N 55°23' E 014°31'1111.4
2015-Feb-14 22:33N 55°30' E 014°47'1211.7
2015-Feb-14 21:33N 55°36' E 015°05'1111.3
2015-Feb-14 20:33N 55°40' E 015°23'12011.6
2015-Feb-14 10:12N 56°21' E 018°45'2011.6
2015-Feb-14 08:30N 56°38' E 019°02'22611.9
2015-Feb-13 13:33N 59°38' E 023°22'1312.9
2015-Feb-13 12:33N 59°41' E 023°47'2512.5
2015-Feb-13 10:33N 59°48' E 024°35'5212.6
2015-Feb-13 06:28N 59°59' E 026°15'1212.7
2015-Feb-13 05:33N 60°01' E 026°37'1312.8
2015-Feb-13 04:32N 59°59' E 027°03'9310.4
2015-Feb-12 19:33N 59°53' E 030°09'  
Track history (hours):
 
Tides and Currents Weather Stations Pressure Air Temp Water Temp Dewpoint Dewpoint Depression Visibility Wind Speed Wind Dir Waves Ship Positions

BBC Orinoco

Last reported at 2015-Feb-21 15:33 UTC. Time now 2015-Feb-27 07:37 UTC.
Position N 36°04' W 005°13'.

Length 143 m; draft 9.4 m.

Type: Cargo ship. MMSI: 305255000.

Date/timePositionNaut miles runAvg speedWind from/ knotsBaromVisibWave heightAir tempDewpointWater temp
2015-Feb-21 15:33N 36°04' W 005°13'8 8.1
2015-Feb-21 14:34N 36°04' W 005°23'22511.6
2015-Feb-20 19:11N 37°26' W 009°45'914.0
2015-Feb-20 18:32N 37°35' W 009°47'1413.9
2015-Feb-20 17:33N 37°48' W 009°51'1614.1
2015-Feb-20 16:24N 38°04' W 009°57'1214.0
2015-Feb-20 15:31N 38°16' W 010°00'1414.4
2015-Feb-20 14:32N 38°30' W 010°04'  
2015-Feb-17 15:06N 50°31' E 000°16'814.8
2015-Feb-17 14:33N 50°33' E 000°29'1414.4
2015-Feb-17 13:33N 50°40' E 000°48'1813.8
2015-Feb-17 12:16N 50°51' E 001°11'911.9
2015-Feb-17 11:31N 50°57' E 001°21'1111.7
2015-Feb-17 10:33N 51°05' E 001°33'1211.8
2015-Feb-17 09:33N 51°14' E 001°46'1313.4
2015-Feb-17 08:34N 51°25' E 001°58'1514.8
2015-Feb-17 07:33N 51°37' E 002°13'10813.5
2015-Feb-16 23:32N 53°01' E 004°04'1913.7
2015-Feb-16 22:10N 53°14' E 004°26'1314.2
2015-Feb-16 21:16N 53°26' E 004°35'1113.3
2015-Feb-16 20:28N 53°31' E 004°50'1313.9
2015-Feb-16 19:33N 53°35' E 005°10'1312.8
2015-Feb-16 18:33N 53°39' E 005°31'1312.6
2015-Feb-16 17:33N 53°44' E 005°51'1211.3
2015-Feb-16 16:32N 53°47' E 006°09'4611.5
2015-Feb-16 12:33N 53°59' E 007°25'1211.5
2015-Feb-16 11:33N 54°01' E 007°44'1212.3
2015-Feb-16 10:33N 54°01' E 008°05'1312.8
2015-Feb-16 09:33N 53°59' E 008°26'1110.6
2015-Feb-16 08:33N 53°54' E 008°42'9 9.0
2015-Feb-16 07:33N 53°51' E 008°56'8 7.7
2015-Feb-16 06:33N 53°54' E 009°09'0 0.2
2015-Feb-16 05:33N 53°54' E 009°09'1 1.2
2015-Feb-16 04:33N 53°55' E 009°10'2 1.7
2015-Feb-16 03:33N 53°56' E 009°12'6 6.5
2015-Feb-16 02:33N 54°01' E 009°18'4 4.3
2015-Feb-16 01:33N 54°05' E 009°20'6 5.4
2015-Feb-16 00:33N 54°10' E 009°25'13 4.3
2015-Feb-15 21:29N 54°18' E 009°43'6 6.0
2015-Feb-15 20:33N 54°22' E 009°50'6 5.9
2015-Feb-15 19:33N 54°21' E 010°00'3 2.6
2015-Feb-15 18:33N 54°22' E 010°04'2 2.4
2015-Feb-15 17:33N 54°22' E 010°09'1 0.8
2015-Feb-15 16:33N 54°22' E 010°10'1 0.8
2015-Feb-15 15:33N 54°22' E 010°11'4 3.7
2015-Feb-15 14:33N 54°26' E 010°13'10 9.9
2015-Feb-15 13:33N 54°32' E 010°26'2311.5
2015-Feb-15 11:33N 54°36' E 011°06'1111.5
2015-Feb-15 10:33N 54°32' E 011°24'1211.6
2015-Feb-15 09:33N 54°27' E 011°42'1111.2
2015-Feb-15 08:33N 54°26' E 012°02'1211.7
2015-Feb-15 07:33N 54°35' E 012°14'1211.9
2015-Feb-15 06:32N 54°43' E 012°31'1312.7
2015-Feb-15 05:31N 54°49' E 012°50'1211.9
2015-Feb-15 04:33N 54°53' E 013°09'1111.5
2015-Feb-15 03:33N 54°56' E 013°28'1211.7
2015-Feb-15 02:33N 55°00' E 013°47'1211.7
2015-Feb-15 01:33N 55°05' E 014°07'1211.7
2015-Feb-15 00:33N 55°14' E 014°19'1111.4
2015-Feb-14 23:33N 55°23' E 014°31'1111.4
2015-Feb-14 22:33N 55°30' E 014°47'1211.7
2015-Feb-14 21:33N 55°36' E 015°05'1111.3
2015-Feb-14 20:33N 55°40' E 015°23'12011.6
2015-Feb-14 10:12N 56°21' E 018°45'2011.6
2015-Feb-14 08:30N 56°38' E 019°02'22611.9
2015-Feb-13 13:33N 59°38' E 023°22'1312.9
2015-Feb-13 12:33N 59°41' E 023°47'2512.5
2015-Feb-13 10:33N 59°48' E 024°35'5212.6
2015-Feb-13 06:28N 59°59' E 026°15'1212.7
2015-Feb-13 05:33N 60°01' E 026°37'1312.8
2015-Feb-13 04:32N 59°59' E 027°03'9310.4
2015-Feb-12 19:33N 59°53' E 030°09'  

Dump ship's entire track history